Aeroporto :
LOGIN :

Iscrizione | Disclaimer

   EN    FR    IT 

 










Sommario :    VFR   VFR Marginale   IFR   IFR Intensivo   IFR Molto Intensivo
Visibilità : 
Base nubi : 
>= 8 km
>= 3000ft
5 / 8 km
1000 / 3000 ft
1500m / 5 km
500 / 1000 ft
800 / 1500m
200 / 500 ft
< 800m
< 200 ft
Simboli :   Temporali  Nebbia  Neve Forte  Precipitazioni Forti  Vento > 20 kt
SIGMETs :   Varie  Temporali  Ghiacco  Turbolenza  Onda orograficha  Ceneri Vulcaniche







- Altitudine del aeroporto : 433 ft
- Carte del aeroporto


LFOC - Chateaudun

ULTIMO METAR :
  • 210530Z AUTO 28003KT 7000 NSC 14/14 Q1014

METARs OBSOLETI :
  • 210500Z AUTO 27004KT 5000 BR NSC 13/13 Q1014
  • 210430Z AUTO 25003KT 6000 NSC 13/13 Q1014
  • 210400Z AUTO 23004KT 8000 NSC 12/12 Q1014
  • 210330Z AUTO 00000KT 7000 2300 NSC 12/11 Q1014
  • 210300Z AUTO 27003KT CAVOK 14/13 Q1014

TAF TAF LFOC
Valido dal 20 a 09 ore il 21 a 09 ore UTC


200800Z 2009/2109 26005KT 9999 SCT015 BKN020
PROB30
TEMPO 2010/2016 4000 -SHRA BKN040CB
Nessun NOTAM noto per questo aeroporto.



MetMap, La meteo Aeronautica in un colpo d'occhio ! - Copyright ORBIFLY Dicembre 2007 - Disclaimer

ORBIFLY MET'MAP TEAM :

Programmazione e sviluppo : Alexandra Zaïnal
Concezione e sviluppo : Baudouin d'Aumeries
Co-Programmazione e sviluppo : Marc-Olivier Méhu
Supporto tecnico e logistico : Manuel Goepfert
Aiuto per la traduzione : Arnaldo La Scala

Contatto : metmap@orbifly.com




FONTI E CREDITI :

   NOAA